Time;durP1;ratioP1;P1;durP2;ratioP2;P2;SDS_P1;SDS_P2;PMS_P1;PMS_P2;Temp;Humidity;BMP_temperature;BMP_pressure;BME280_temperature;BME280_humidity;BME280_pressure;Samples;Min_cycle;Max_cycle;Signal;HPM_P1;HPM_P2
2023/08/24 00:00:20;;;;;;;3.92;3.47;;;19.00;99.90;;;;;;4964299;28;20365;-81
2023/08/24 00:02:46;;;;;;;5.00;4.20;;;19.00;99.90;;;;;;4982023;28;20270;-82
2023/08/24 00:05:12;;;;;;;9.18;4.88;;;18.90;99.90;;;;;;4964869;28;20306;-82
2023/08/24 00:07:38;;;;;;;4.10;3.70;;;19.00;99.90;;;;;;4999810;28;20065;-82
2023/08/24 00:10:05;;;;;;;4.90;3.67;;;19.10;99.90;;;;;;5001926;28;20014;-82
2023/08/24 00:12:33;;;;;;;12.95;5.05;;;19.00;99.90;;;;;;4983536;28;20026;-81
2023/08/24 00:14:58;;;;;;;4.32;3.78;;;19.00;99.90;;;;;;5001512;28;20072;-82
2023/08/24 00:17:24;;;;;;;5.95;3.28;;;19.10;99.90;;;;;;4984295;28;20334;-81
2023/08/24 00:19:50;;;;;;;7.38;3.70;;;19.10;99.90;;;;;;4978990;28;20089;-81
2023/08/24 00:22:15;;;;;;;5.68;3.88;;;19.10;99.90;;;;;;4953762;28;20030;-83
2023/08/24 00:24:41;;;;;;;4.78;4.32;;;19.00;99.90;;;;;;4971829;28;20023;-82
2023/08/24 00:27:07;;;;;;;7.75;3.65;;;19.00;99.90;;;;;;4954413;28;20073;-83
2023/08/24 00:29:32;;;;;;;4.30;3.90;;;18.80;99.90;;;;;;4971303;28;20034;-84
2023/08/24 00:31:58;;;;;;;6.07;4.38;;;18.80;99.90;;;;;;4970511;28;20376;-84
2023/08/24 00:34:23;;;;;;;6.78;4.10;;;18.70;99.90;;;;;;4971090;28;20030;-82
2023/08/24 00:36:49;;;;;;;4.05;3.60;;;18.60;99.90;;;;;;4970065;28;20125;-83
2023/08/24 00:39:16;;;;;;;4.38;3.88;;;18.50;99.90;;;;;;4952146;28;20038;-82
2023/08/24 00:41:42;;;;;;;4.32;3.97;;;18.50;99.90;;;;;;4953334;28;20027;-84
2023/08/24 00:44:07;;;;;;;4.82;4.18;;;18.60;99.90;;;;;;4952940;28;20129;-83
2023/08/24 00:46:34;;;;;;;5.68;3.92;;;18.60;99.90;;;;;;4952808;28;20106;-83
2023/08/24 00:49:00;;;;;;;6.18;4.53;;;18.50;99.90;;;;;;4952679;28;20034;-83
2023/08/24 00:51:25;;;;;;;5.47;4.43;;;18.50;99.90;;;;;;4953409;28;20026;-83
2023/08/24 00:53:52;;;;;;;5.82;4.35;;;18.60;99.90;;;;;;4953805;28;20027;-83
2023/08/24 00:56:19;;;;;;;5.55;4.68;;;18.50;99.90;;;;;;4970980;28;20019;-80
2023/08/24 00:58:47;;;;;;;4.13;3.78;;;18.50;99.90;;;;;;4953606;28;20125;-81
2023/08/24 01:01:13;;;;;;;4.50;4.10;;;18.50;99.90;;;;;;4953459;28;20062;-81
2023/08/24 01:03:38;;;;;;;4.53;4.13;;;18.60;99.90;;;;;;4952217;28;20483;-81
2023/08/24 01:06:04;;;;;;;4.25;3.65;;;18.60;99.90;;;;;;4952824;28;20066;-81
2023/08/24 01:08:30;;;;;;;4.72;4.32;;;18.60;99.90;;;;;;4952732;28;20026;-80
2023/08/24 01:11:19;;;;;;;6.70;4.82;;;18.50;99.90;;;;;;4952790;28;20027;-81
2023/08/24 01:14:02;;;;;;;8.38;3.67;;;18.50;99.90;;;;;;4951905;28;20475;-81
2023/08/24 01:16:31;;;;;;;4.03;3.33;;;18.60;99.90;;;;;;4953113;28;20086;-80
2023/08/24 01:19:00;;;;;;;4.63;4.15;;;18.60;99.90;;;;;;4971197;28;20126;-81
2023/08/24 01:21:27;;;;;;;4.70;4.22;;;18.70;99.90;;;;;;4954107;28;20061;-82
2023/08/24 01:24:36;;;;;;;4.50;3.97;;;18.70;99.90;;;;;;4971646;28;20037;-81
2023/08/24 01:27:02;;;;;;;7.32;3.70;;;18.50;99.90;;;;;;4876145;29;20025;-80
2023/08/24 01:29:28;;;;;;;7.00;4.18;;;18.40;99.90;;;;;;4941285;28;20130;-80
2023/08/24 01:31:54;;;;;;;5.05;4.65;;;18.30;99.90;;;;;;4953389;28;20042;-82
2023/08/24 01:34:19;;;;;;;6.63;4.32;;;18.40;99.90;;;;;;4971257;28;20085;-81
2023/08/24 01:36:45;;;;;;;5.57;4.10;;;18.40;99.90;;;;;;4953972;28;20018;-81
2023/08/24 01:39:14;;;;;;;6.72;4.00;;;18.30;99.90;;;;;;4953938;28;20035;-82
2023/08/24 01:41:46;;;;;;;8.98;5.05;;;18.30;99.90;;;;;;4953764;28;20022;-81
2023/08/24 01:44:14;;;;;;;5.13;4.22;;;18.40;99.90;;;;;;4954141;28;20037;-81
2023/08/24 01:46:43;;;;;;;6.00;4.40;;;18.30;99.90;;;;;;4953884;28;20125;-82
2023/08/24 01:49:14;;;;;;;4.78;4.18;;;18.30;99.90;;;;;;4970794;28;20023;-80
2023/08/24 01:51:41;;;;;;;5.15;4.40;;;18.20;99.90;;;;;;4953682;28;20034;-81
2023/08/24 01:54:07;;;;;;;5.45;4.75;;;18.30;99.90;;;;;;4953550;28;20026;-81
2023/08/24 01:56:34;;;;;;;7.28;5.63;;;18.30;99.90;;;;;;4953517;28;20037;-81
2023/08/24 01:58:59;;;;;;;4.43;4.03;;;18.20;99.90;;;;;;4953544;28;20129;-81
2023/08/24 02:01:25;;;;;;;6.60;3.83;;;18.20;99.90;;;;;;4970958;28;20463;-81
2023/08/24 02:03:51;;;;;;;5.60;4.30;;;18.00;99.90;;;;;;4970602;28;20023;-81
2023/08/24 02:06:16;;;;;;;5.30;4.15;;;17.90;99.90;;;;;;4953586;28;20026;-81
2023/08/24 02:08:44;;;;;;;7.18;4.57;;;17.70;99.90;;;;;;4971019;28;20025;-82
2023/08/24 02:11:10;;;;;;;7.15;5.20;;;17.70;99.90;;;;;;4953716;28;20031;-82
2023/08/24 02:13:36;;;;;;;5.13;4.72;;;17.70;99.90;;;;;;4953308;28;20067;-83
2023/08/24 02:16:08;;;;;;;10.40;4.95;;;17.80;99.90;;;;;;4953334;28;20027;-82
2023/08/24 02:18:34;;;;;;;5.20;4.68;;;17.80;99.90;;;;;;4952856;28;20030;-82
2023/08/24 02:21:00;;;;;;;7.40;5.20;;;17.90;99.90;;;;;;4953588;28;20027;-81
2023/08/24 02:23:25;;;;;;;8.05;5.20;;;17.90;99.90;;;;;;4953097;28;20114;-82
2023/08/24 02:25:51;;;;;;;6.43;5.00;;;17.80;99.90;;;;;;4953084;28;20035;-81
2023/08/24 02:28:17;;;;;;;7.22;5.03;;;17.70;99.90;;;;;;4953227;28;20176;-81
2023/08/24 02:30:42;;;;;;;4.60;4.20;;;17.70;99.90;;;;;;4953113;28;20034;-81
2023/08/24 02:33:08;;;;;;;7.88;4.28;;;17.80;99.90;;;;;;4952986;28;20030;-83
2023/08/24 02:35:34;;;;;;;5.13;4.57;;;17.80;99.90;;;;;;4953201;28;20364;-80
2023/08/24 02:38:00;;;;;;;6.43;5.00;;;17.90;99.90;;;;;;4971110;28;20062;-81
2023/08/24 02:40:25;;;;;;;5.05;4.50;;;17.90;99.90;;;;;;4970316;28;20041;-81
2023/08/24 02:42:51;;;;;;;8.20;5.55;;;17.90;99.90;;;;;;4953172;28;20023;-81
2023/08/24 02:45:16;;;;;;;4.90;3.95;;;17.80;99.90;;;;;;4970255;28;20033;-81
2023/08/24 02:47:42;;;;;;;5.63;4.20;;;17.80;99.90;;;;;;4969665;28;20155;-81
2023/08/24 02:50:08;;;;;;;7.20;4.78;;;17.90;99.90;;;;;;4970168;28;20563;-80
2023/08/24 02:52:34;;;;;;;4.57;4.18;;;17.90;99.90;;;;;;4952736;28;20495;-80
2023/08/24 02:54:59;;;;;;;5.13;4.63;;;17.90;99.90;;;;;;4952805;28;20062;-80
2023/08/24 02:57:25;;;;;;;7.97;5.05;;;17.90;99.90;;;;;;4970038;28;20038;-81
2023/08/24 02:59:50;;;;;;;8.40;5.10;;;17.90;99.90;;;;;;4969925;28;20127;-80
2023/08/24 03:02:16;;;;;;;8.45;5.03;;;17.80;99.90;;;;;;4952399;28;20399;-80
2023/08/24 03:04:42;;;;;;;6.20;5.07;;;17.80;99.90;;;;;;4952152;28;20031;-81
2023/08/24 03:07:10;;;;;;;8.52;5.22;;;17.90;99.90;;;;;;4952903;28;20463;-81
2023/08/24 03:09:36;;;;;;;6.05;4.80;;;17.80;99.90;;;;;;4952843;28;20049;-81
2023/08/24 03:12:01;;;;;;;6.82;5.18;;;17.80;99.90;;;;;;4952580;28;20120;-80
2023/08/24 03:14:27;;;;;;;4.95;4.45;;;17.80;99.90;;;;;;4952776;28;20033;-79
2023/08/24 03:16:53;;;;;;;9.57;5.20;;;17.80;99.90;;;;;;4952212;28;20019;-80
2023/08/24 03:19:18;;;;;;;8.77;5.20;;;17.80;99.90;;;;;;4969918;28;20066;-81
2023/08/24 03:21:44;;;;;;;6.93;4.90;;;17.90;99.90;;;;;;4952660;28;20023;-81
2023/08/24 03:24:10;;;;;;;5.53;4.88;;;17.80;99.90;;;;;;4952800;28;20423;-81
2023/08/24 03:26:36;;;;;;;5.82;4.63;;;18.00;99.90;;;;;;4969854;28;20078;-81
2023/08/24 03:29:02;;;;;;;5.18;4.07;;;17.90;99.90;;;;;;4969872;28;20507;-81
2023/08/24 03:31:28;;;;;;;11.65;6.13;;;17.80;99.90;;;;;;4952601;28;20050;-81
2023/08/24 03:33:54;;;;;;;8.35;6.00;;;17.70;99.90;;;;;;4952200;28;20067;-80
2023/08/24 03:36:20;;;;;;;7.97;5.40;;;17.60;99.90;;;;;;4953695;28;20518;-80
2023/08/24 03:38:45;;;;;;;7.78;6.22;;;17.60;99.90;;;;;;4955889;28;20097;-81
2023/08/24 03:41:11;;;;;;;10.07;5.53;;;17.60;99.90;;;;;;4955892;28;20031;-81
2023/08/24 03:43:37;;;;;;;5.85;5.03;;;17.50;99.90;;;;;;4973356;28;20054;-81
2023/08/24 03:46:04;;;;;;;14.27;5.88;;;17.60;99.90;;;;;;4956000;28;20023;-80
2023/08/24 03:48:29;;;;;;;7.93;5.88;;;17.60;99.90;;;;;;4956030;28;20435;-81
2023/08/24 03:50:56;;;;;;;6.10;5.50;;;17.50;99.90;;;;;;4955961;28;20026;-80
2023/08/24 03:53:23;;;;;;;6.28;5.05;;;17.60;99.90;;;;;;4955737;28;20030;-81
2023/08/24 03:55:49;;;;;;;8.07;5.93;;;17.60;99.90;;;;;;4973872;28;20034;-82
2023/08/24 03:58:15;;;;;;;8.68;6.22;;;17.60;99.90;;;;;;4973213;28;20106;-81
2023/08/24 04:00:41;;;;;;;6.57;5.05;;;17.60;99.90;;;;;;4955357;28;20189;-81
2023/08/24 04:03:07;;;;;;;7.35;5.85;;;17.50;99.90;;;;;;4955122;28;20023;-81
2023/08/24 04:05:33;;;;;;;6.32;5.20;;;17.60;99.90;;;;;;4972632;28;20134;-80
2023/08/24 04:08:00;;;;;;;7.47;5.70;;;17.50;99.90;;;;;;4955587;28;20033;-80
2023/08/24 04:10:26;;;;;;;7.07;5.80;;;17.40;99.90;;;;;;4955583;28;20031;-80
2023/08/24 04:12:52;;;;;;;6.20;5.57;;;17.40;99.90;;;;;;4972859;28;20515;-80
2023/08/24 04:15:18;;;;;;;7.30;5.97;;;17.30;99.90;;;;;;4955175;28;20546;-80
2023/08/24 04:17:44;;;;;;;6.95;5.13;;;17.40;99.90;;;;;;4955085;28;20126;-80
2023/08/24 04:20:11;;;;;;;9.55;5.93;;;17.40;99.90;;;;;;4955011;28;20524;-80
2023/08/24 04:22:36;;;;;;;8.45;6.05;;;17.40;99.90;;;;;;4955460;28;20031;-80
2023/08/24 04:25:02;;;;;;;12.25;5.80;;;17.40;99.90;;;;;;4972428;28;20053;-81
2023/08/24 04:27:28;;;;;;;5.80;5.15;;;17.40;99.90;;;;;;4955180;28;20034;-80
2023/08/24 04:29:54;;;;;;;9.88;5.43;;;17.40;99.90;;;;;;4955096;28;20038;-81
2023/08/24 04:32:19;;;;;;;7.43;4.80;;;17.40;99.90;;;;;;4954773;28;20023;-80
2023/08/24 04:34:45;;;;;;;6.30;5.70;;;17.40;99.90;;;;;;4955039;28;20031;-81
2023/08/24 04:37:10;;;;;;;8.25;5.35;;;17.40;99.90;;;;;;4955022;28;20046;-80
2023/08/24 04:39:37;;;;;;;6.63;6.03;;;17.40;99.90;;;;;;4954956;28;20049;-81
2023/08/24 04:42:03;;;;;;;6.00;5.35;;;17.40;99.90;;;;;;4954675;28;20054;-80
2023/08/24 04:44:28;;;;;;;6.07;5.47;;;17.50;99.90;;;;;;4954717;28;20050;-80
2023/08/24 04:46:54;;;;;;;11.95;5.60;;;17.40;99.90;;;;;;4953671;28;20023;-81
2023/08/24 04:49:20;;;;;;;5.90;5.40;;;17.50;99.90;;;;;;4954530;28;20077;-80
2023/08/24 04:51:45;;;;;;;7.25;5.28;;;17.50;99.90;;;;;;4954812;28;20660;-80
2023/08/24 04:54:11;;;;;;;6.65;5.88;;;17.40;99.90;;;;;;4954872;28;20034;-81
2023/08/24 04:56:37;;;;;;;9.70;5.85;;;17.50;99.90;;;;;;4971982;28;20109;-80
2023/08/24 04:59:03;;;;;;;8.38;5.13;;;17.60;99.90;;;;;;4954412;28;20395;-80
2023/08/24 05:01:31;;;;;;;11.57;5.72;;;17.70;99.90;;;;;;4954186;28;20456;-80
2023/08/24 05:03:57;;;;;;;6.90;5.45;;;17.70;99.90;;;;;;4955885;28;20035;-83
2023/08/24 05:06:23;;;;;;;5.13;4.40;;;17.70;99.90;;;;;;4973464;28;20084;-82
2023/08/24 05:08:48;;;;;;;8.15;4.93;;;17.70;99.90;;;;;;4972736;28;20430;-82
2023/08/24 05:11:18;;;;;;;7.53;5.43;;;17.70;99.90;;;;;;4987690;28;20457;-85
2023/08/24 05:13:44;;;;;;;8.85;4.63;;;17.80;99.90;;;;;;4986079;28;20026;-81
2023/08/24 05:16:11;;;;;;;10.63;5.15;;;17.90;99.90;;;;;;4962253;28;20025;-79
2023/08/24 05:18:37;;;;;;;28.02;5.10;;;18.10;99.90;;;;;;4955291;28;20050;-81
2023/08/24 05:21:03;;;;;;;5.70;5.13;;;18.30;99.90;;;;;;4953669;28;20023;-85
2023/08/24 05:23:33;;;;;;;15.80;6.20;;;18.50;99.90;;;;;;4987207;28;20121;-84
2023/08/24 05:25:59;;;;;;;7.53;4.50;;;18.50;99.90;;;;;;4972768;28;20026;-78
2023/08/24 05:28:26;;;;;;;13.13;5.75;;;18.50;99.90;;;;;;4972286;28;20046;-79
2023/08/24 05:30:53;;;;;;;5.63;4.35;;;18.60;99.90;;;;;;4972272;28;20022;-77
2023/08/24 05:33:19;;;;;;;5.55;4.38;;;18.70;99.90;;;;;;4989417;28;20022;-78
2023/08/24 05:35:45;;;;;;;5.53;4.18;;;18.80;99.90;;;;;;4989888;28;20486;-78
2023/08/24 05:38:11;;;;;;;4.18;3.80;;;18.90;99.90;;;;;;4989630;28;20034;-78
2023/08/24 05:40:37;;;;;;;6.03;4.38;;;18.90;99.90;;;;;;4989259;28;20038;-78
2023/08/24 05:43:03;;;;;;;4.90;3.67;;;19.00;99.90;;;;;;4989331;28;20026;-79
2023/08/24 05:45:28;;;;;;;3.83;3.42;;;19.10;99.90;;;;;;4989878;28;20364;-80
2023/08/24 05:47:54;;;;;;;4.35;3.88;;;19.30;99.90;;;;;;4971714;28;20085;-78
2023/08/24 05:50:20;;;;;;;5.38;3.50;;;19.40;99.90;;;;;;4989674;28;20546;-78
2023/08/24 05:52:45;;;;;;;5.43;3.80;;;19.50;99.90;;;;;;4989536;28;20030;-79
2023/08/24 05:55:11;;;;;;;6.15;4.32;;;19.50;99.90;;;;;;4971887;28;20407;-77
2023/08/24 05:57:37;;;;;;;4.15;3.75;;;19.70;99.90;;;;;;4989590;28;20476;-78
2023/08/24 06:00:09;;;;;;;4.07;3.47;;;19.70;99.90;;;;;;4971070;28;20039;-77
2023/08/24 06:02:35;;;;;;;4.28;3.58;;;19.70;99.90;;;;;;4970924;28;20065;-78
2023/08/24 06:05:01;;;;;;;3.50;3.20;;;19.70;99.90;;;;;;4972080;28;20038;-83
2023/08/24 06:07:26;;;;;;;8.68;3.50;;;20.00;99.90;;;;;;4972006;28;20433;-77
2023/08/24 06:09:52;;;;;;;4.38;3.90;;;20.20;99.90;;;;;;4989621;28;20026;-78
2023/08/24 06:12:18;;;;;;;6.63;3.67;;;20.40;99.90;;;;;;4988936;28;20519;-79
2023/08/24 06:14:44;;;;;;;11.52;6.05;;;20.60;99.90;;;;;;4971346;28;20026;-77
2023/08/24 06:17:09;;;;;;;18.08;11.80;;;20.70;99.90;;;;;;4988552;28;20031;-78
2023/08/24 06:19:35;;;;;;;15.63;9.32;;;20.90;99.90;;;;;;4987431;28;20042;-77
2023/08/24 06:22:01;;;;;;;6.10;4.22;;;21.30;99.90;;;;;;4989189;28;20286;-78
2023/08/24 06:24:26;;;;;;;7.30;3.47;;;21.50;99.90;;;;;;4971666;28;20030;-78
2023/08/24 06:26:52;;;;;;;3.33;3.05;;;21.90;99.90;;;;;;4971565;28;20018;-78
2023/08/24 06:29:17;;;;;;;11.48;7.30;;;22.00;99.90;;;;;;4971715;28;20031;-77
2023/08/24 06:31:43;;;;;;;8.93;3.97;;;22.20;99.90;;;;;;4970709;28;20114;-78
2023/08/24 06:34:08;;;;;;;3.63;3.15;;;22.40;99.90;;;;;;4971325;28;20049;-78
2023/08/24 06:36:34;;;;;;;5.22;3.10;;;22.50;99.90;;;;;;4988697;28;20113;-79
2023/08/24 06:39:00;;;;;;;7.72;4.85;;;22.50;99.90;;;;;;4971274;28;20125;-79
2023/08/24 06:41:25;;;;;;;3.65;3.22;;;22.60;99.90;;;;;;4971632;28;20026;-80
2023/08/24 06:43:53;;;;;;;6.25;3.47;;;22.60;99.90;;;;;;4971278;28;20041;-78
2023/08/24 06:46:19;;;;;;;7.13;3.33;;;22.80;99.90;;;;;;4971105;28;20117;-81
2023/08/24 06:48:45;;;;;;;7.25;4.07;;;22.70;99.90;;;;;;4988215;28;20098;-81
2023/08/24 06:51:11;;;;;;;4.43;3.83;;;22.70;99.90;;;;;;4970837;28;20495;-80
2023/08/24 06:53:37;;;;;;;5.38;4.25;;;22.70;99.90;;;;;;4970913;28;20061;-79
2023/08/24 06:56:03;;;;;;;9.40;4.15;;;22.60;99.90;;;;;;4970532;28;20447;-76
2023/08/24 06:58:29;;;;;;;4.90;3.88;;;22.70;99.90;;;;;;4964047;28;20402;-76
2023/08/24 07:00:55;;;;;;;9.80;3.95;;;22.70;99.90;;;;;;4967631;28;20051;-74
2023/08/24 07:03:21;;;;;;;4.07;3.72;;;22.50;99.90;;;;;;4968670;28;20016;-74
2023/08/24 07:05:46;;;;;;;5.50;3.90;;;22.50;99.90;;;;;;4967799;28;20041;-74
2023/08/24 07:08:13;;;;;;;4.05;3.63;;;22.50;99.90;;;;;;4968901;28;20547;-74
2023/08/24 07:10:38;;;;;;;6.97;4.13;;;22.70;99.90;;;;;;4969515;28;20030;-73
2023/08/24 07:13:07;;;;;;;5.95;4.43;;;22.80;99.90;;;;;;4971341;28;20026;-77
2023/08/24 07:15:34;;;;;;;5.50;4.63;;;22.90;99.90;;;;;;4972912;28;20033;-77
2023/08/24 07:18:01;;;;;;;4.72;4.22;;;23.00;99.90;;;;;;4972819;28;20027;-76
2023/08/24 07:20:27;;;;;;;7.15;4.07;;;23.00;99.90;;;;;;4972748;28;20050;-74
2023/08/24 07:22:53;;;;;;;6.32;4.32;;;22.90;99.90;;;;;;4972321;28;20031;-74
2023/08/24 07:25:21;;;;;;;4.50;3.45;;;23.00;99.90;;;;;;4972544;28;20023;-73
2023/08/24 07:27:47;;;;;;;5.32;3.75;;;23.10;99.90;;;;;;4954765;28;20376;-73
2023/08/24 07:30:13;;;;;;;4.57;4.05;;;23.20;99.90;;;;;;4972379;28;20030;-74
2023/08/24 07:32:38;;;;;;;10.25;5.38;;;22.90;99.90;;;;;;4971789;28;20053;-75
2023/08/24 07:35:06;;;;;;;6.43;4.35;;;23.00;99.90;;;;;;4972593;28;20027;-74
2023/08/24 07:37:32;;;;;;;5.25;3.65;;;23.20;99.90;;;;;;4972592;28;20023;-74
2023/08/24 07:39:57;;;;;;;6.50;4.72;;;23.20;99.90;;;;;;4972169;28;20285;-74
2023/08/24 07:42:23;;;;;;;9.25;4.32;;;23.70;99.90;;;;;;4971899;28;20019;-74
2023/08/24 07:44:49;;;;;;;6.55;5.35;;;24.10;99.90;;;;;;4972143;28;20061;-74
2023/08/24 07:47:15;;;;;;;6.93;3.58;;;24.40;99.90;;;;;;4954581;28;20431;-73
2023/08/24 07:49:44;;;;;;;5.55;4.30;;;24.50;99.90;;;;;;4954460;28;20054;-75
2023/08/24 07:52:11;;;;;;;6.00;3.85;;;24.50;99.90;;;;;;4954606;28;20038;-75
2023/08/24 07:54:36;;;;;;;4.82;3.88;;;24.60;99.90;;;;;;4972023;28;20031;-73
2023/08/24 07:57:02;;;;;;;4.68;4.25;;;24.80;99.90;;;;;;4971922;28;20042;-74
2023/08/24 07:59:28;;;;;;;4.60;3.78;;;24.90;99.90;;;;;;4985998;28;20487;-73
2023/08/24 08:01:53;;;;;;;5.88;4.10;;;24.80;99.90;;;;;;4990612;28;20137;-74
2023/08/24 08:04:19;;;;;;;7.93;4.10;;;25.10;99.90;;;;;;4991028;28;20130;-74
2023/08/24 08:06:44;;;;;;;4.22;3.83;;;25.20;99.90;;;;;;4991472;28;20460;-75
2023/08/24 08:09:10;;;;;;;11.73;4.15;;;25.20;99.90;;;;;;4973795;28;20158;-73
2023/08/24 08:11:36;;;;;;;11.23;4.35;;;25.30;99.90;;;;;;4990146;28;20421;-76
2023/08/24 08:14:02;;;;;;;6.30;4.63;;;25.40;99.90;;;;;;4991054;28;20027;-75
2023/08/24 08:16:28;;;;;;;5.00;4.50;;;25.40;99.90;;;;;;4989293;28;20034;-78
2023/08/24 08:18:53;;;;;;;6.68;4.80;;;25.50;99.90;;;;;;4990880;28;20030;-77
2023/08/24 08:21:19;;;;;;;4.57;3.85;;;25.70;99.90;;;;;;4985229;28;20054;-77
2023/08/24 08:23:45;;;;;;;9.27;4.28;;;26.00;99.90;;;;;;4989194;28;20037;-77
2023/08/24 08:26:11;;;;;;;12.20;4.72;;;27.10;99.90;;;;;;4989292;28;20033;-77
2023/08/24 08:28:37;;;;;;;4.95;4.28;;;28.10;99.90;;;;;;4989195;28;20076;-78
2023/08/24 08:31:03;;;;;;;7.65;4.43;;;29.00;99.90;;;;;;4989208;28;20045;-77
2023/08/24 08:33:29;;;;;;;9.50;4.85;;;29.40;98.40;;;;;;4990512;28;20026;-77
2023/08/24 08:35:56;;;;;;;9.57;3.42;;;29.60;96.90;;;;;;4990742;28;20031;-77
2023/08/24 08:38:25;;;;;;;8.07;3.42;;;30.40;94.90;;;;;;4990911;28;20030;-77
2023/08/24 08:40:53;;;;;;;5.63;3.83;;;30.70;92.70;;;;;;4990339;28;20026;-77
2023/08/24 08:43:21;;;;;;;6.78;3.55;;;30.80;92.10;;;;;;4990027;28;20241;-78
2023/08/24 08:45:47;;;;;;;10.13;4.72;;;30.80;90.40;;;;;;4987840;28;20656;-78
2023/08/24 08:48:13;;;;;;;10.63;4.07;;;30.80;90.80;;;;;;4987331;28;20030;-77
2023/08/24 08:50:38;;;;;;;7.40;4.45;;;31.00;90.20;;;;;;4990124;28;20455;-77
2023/08/24 08:53:04;;;;;;;13.10;4.20;;;31.00;88.20;;;;;;4988562;28;20041;-76
2023/08/24 08:55:31;;;;;;;4.05;3.63;;;30.80;88.70;;;;;;4988288;28;20022;-76
2023/08/24 08:57:58;;;;;;;4.32;3.60;;;30.90;89.30;;;;;;4984553;28;20466;-76
2023/08/24 09:00:25;;;;;;;5.10;4.32;;;30.70;90.00;;;;;;4973178;28;20047;-78
2023/08/24 09:02:53;;;;;;;4.65;4.03;;;29.90;89.20;;;;;;4969666;28;20136;-79
2023/08/24 09:05:19;;;;;;;4.50;3.53;;;29.80;89.80;;;;;;4971822;28;20034;-76
2023/08/24 09:07:47;;;;;;;7.65;4.30;;;29.90;88.90;;;;;;4954186;28;20045;-78
2023/08/24 09:10:13;;;;;;;6.38;4.45;;;29.80;89.60;;;;;;4971418;28;20030;-78
2023/08/24 09:12:38;;;;;;;5.85;3.83;;;29.90;88.60;;;;;;4971656;28;20058;-77
2023/08/24 09:15:06;;;;;;;6.38;4.32;;;30.00;89.30;;;;;;4980324;28;20038;-79
2023/08/24 09:17:33;;;;;;;5.63;3.78;;;30.50;87.30;;;;;;4970966;28;20125;-74
2023/08/24 09:19:59;;;;;;;3.97;3.47;;;31.20;85.60;;;;;;4971333;28;20034;-76
2023/08/24 09:22:25;;;;;;;5.80;3.67;;;31.80;83.80;;;;;;4970201;28;20072;-76
2023/08/24 09:24:51;;;;;;;6.88;3.22;;;32.50;82.10;;;;;;4953689;28;20130;-77
2023/08/24 09:27:23;;;;;;;10.77;4.03;;;32.70;80.40;;;;;;4983578;28;20460;-75
2023/08/24 09:29:50;;;;;;;10.80;4.28;;;32.60;79.70;;;;;;4984826;28;20034;-78
2023/08/24 09:32:22;;;;;;;12.25;4.05;;;32.80;79.40;;;;;;4953264;28;20023;-78
2023/08/24 09:34:47;;;;;;;10.95;3.67;;;32.80;79.60;;;;;;4970234;28;20019;-76
2023/08/24 09:37:17;;;;;;;4.68;3.45;;;32.70;80.00;;;;;;4982561;28;20387;-76
2023/08/24 09:39:44;;;;;;;5.38;3.75;;;32.60;78.70;;;;;;4969802;28;20101;-77
2023/08/24 09:42:09;;;;;;;7.45;3.65;;;32.80;79.00;;;;;;4968352;28;20027;-76
2023/08/24 09:44:35;;;;;;;4.00;3.60;;;32.70;78.30;;;;;;4988624;28;20026;-76
2023/08/24 09:47:00;;;;;;;6.70;4.07;;;32.70;78.50;;;;;;4953326;28;20023;-81
2023/08/24 09:49:28;;;;;;;4.85;3.45;;;31.90;79.70;;;;;;4970891;28;20549;-79
2023/08/24 09:51:59;;;;;;;5.50;3.67;;;31.90;79.30;;;;;;4983330;28;20025;-79
2023/08/24 09:54:27;;;;;;;5.20;3.95;;;31.50;80.80;;;;;;4990032;28;20345;-79
2023/08/24 09:56:55;;;;;;;3.92;3.63;;;31.60;80.60;;;;;;4989811;28;20034;-79
2023/08/24 09:59:24;;;;;;;6.77;4.20;;;31.30;80.60;;;;;;4990152;28;20038;-78
2023/08/24 10:01:51;;;;;;;;;;;31.20;80.40;;;;;;4989790;28;20480;-79
2023/08/24 10:04:29;;;;;;;5.68;4.32;;;31.30;80.70;;;;;;4972204;28;19929;-76
2023/08/24 10:07:11;;;;;;;7.32;4.40;;;31.50;80.80;;;;;;4989824;28;20026;-79
2023/08/24 10:09:44;;;;;;;10.13;4.80;;;31.20;81.60;;;;;;4989828;28;20037;-76
2023/08/24 10:12:11;;;;;;;7.57;4.15;;;31.30;81.30;;;;;;4989653;28;20077;-76
2023/08/24 10:14:45;;;;;;;4.50;4.07;;;31.40;80.70;;;;;;4989371;28;20049;-75
2023/08/24 10:17:13;;;;;;;5.35;3.60;;;31.40;81.90;;;;;;4969194;28;20479;-76
2023/08/24 10:19:40;;;;;;;4.80;3.67;;;31.90;80.40;;;;;;4970701;28;20089;-75
2023/08/24 10:22:07;;;;;;;8.40;3.90;;;32.60;79.40;;;;;;4953275;28;20501;-77
2023/08/24 10:24:32;;;;;;;8.80;3.88;;;32.80;78.10;;;;;;4979770;28;20022;-74
2023/08/24 10:26:59;;;;;;;7.38;3.38;;;32.80;77.30;;;;;;4970971;28;20384;-75
2023/08/24 10:29:27;;;;;;;9.30;4.25;;;32.60;77.10;;;;;;4970065;28;20031;-79
2023/08/24 10:31:54;;;;;;;5.78;3.20;;;32.70;77.90;;;;;;4970385;28;20106;-78
2023/08/24 10:34:19;;;;;;;10.75;4.18;;;32.80;76.80;;;;;;4952356;28;20058;-75
2023/08/24 10:36:48;;;;;;;8.27;4.18;;;33.20;76.20;;;;;;4970138;28;20038;-75
2023/08/24 10:39:14;;;;;;;6.78;3.85;;;33.40;75.20;;;;;;4969855;28;20334;-71
2023/08/24 10:41:53;;;;;;;7.40;3.78;;;33.50;75.40;;;;;;4969969;28;20030;-72
2023/08/24 10:44:23;;;;;;;;;;;33.30;77.90;;;;;;4970556;28;20123;-72
2023/08/24 10:47:12;;;;;;;6.85;3.35;;;33.90;75.10;;;;;;4974166;28;19910;-72
2023/08/24 10:49:37;;;;;;;5.00;4.43;;;34.50;73.50;;;;;;4987590;28;20030;-73
2023/08/24 10:52:19;;;;;;;7.10;3.85;;;34.80;72.80;;;;;;4975172;28;20042;-75
2023/08/24 10:54:52;;;;;;;6.65;3.83;;;35.50;71.40;;;;;;4973722;28;20045;-74
2023/08/24 10:57:34;;;;;;;5.82;3.85;;;35.80;70.80;;;;;;4972514;28;20129;-72
2023/08/24 11:00:07;;;;;;;5.03;3.60;;;36.20;70.20;;;;;;4972346;28;20030;-71
2023/08/24 11:02:43;;;;;;;14.15;3.72;;;36.70;68.00;;;;;;4975475;28;20046;-70
2023/08/24 11:05:27;;;;;;;5.13;3.33;;;36.90;68.20;;;;;;4973346;28;20045;-70
2023/08/24 11:07:59;;;;;;;7.40;3.03;;;36.70;69.40;;;;;;4973504;28;20034;-71
2023/08/24 11:10:30;;;;;;;7.10;3.45;;;36.20;67.50;;;;;;4973482;28;20106;-70
2023/08/24 11:13:06;;;;;;;5.57;3.47;;;35.70;68.00;;;;;;4973477;28;20512;-69
2023/08/24 11:15:57;;;;;;;4.55;3.20;;;35.40;69.10;;;;;;4973480;28;20023;-71
2023/08/24 11:18:28;;;;;;;8.70;3.67;;;35.50;68.10;;;;;;4973143;28;20133;-71
2023/08/24 11:21:05;;;;;;;5.60;2.83;;;35.40;68.80;;;;;;4973600;28;20130;-71
2023/08/24 11:23:31;;;;;;;6.80;3.22;;;34.70;69.40;;;;;;4972101;28;20026;-71
2023/08/24 11:25:59;;;;;;;7.63;3.50;;;35.00;68.30;;;;;;4973333;28;20175;-73
2023/08/24 11:28:29;;;;;;;3.90;3.45;;;35.50;68.30;;;;;;4971876;28;20360;-71
2023/08/24 11:30:56;;;;;;;8.07;3.03;;;35.50;68.40;;;;;;4973084;28;20126;-74
2023/08/24 11:33:33;;;;;;;3.33;2.67;;;36.10;66.80;;;;;;4972471;28;20066;-71
2023/08/24 11:36:02;;;;;;;6.07;3.45;;;35.90;65.90;;;;;;4973159;28;20113;-71
2023/08/24 11:38:47;;;;;;;4.32;3.17;;;36.30;66.90;;;;;;4973128;28;20218;-72
2023/08/24 11:41:17;;;;;;;6.82;3.35;;;37.00;65.50;;;;;;4973148;28;20076;-73
2023/08/24 11:43:44;;;;;;;4.93;3.45;;;37.10;64.40;;;;;;4972982;28;20023;-71
2023/08/24 11:46:10;;;;;;;5.55;2.97;;;37.30;65.10;;;;;;4972807;28;20038;-77
2023/08/24 11:48:39;;;;;;;5.75;3.22;;;37.50;64.30;;;;;;4972578;28;20027;-70
2023/08/24 11:51:09;;;;;;;8.25;3.05;;;36.90;63.40;;;;;;4972865;28;20380;-71
2023/08/24 11:53:45;;;;;;;3.38;3.08;;;36.60;64.30;;;;;;4973134;28;20026;-71
2023/08/24 11:56:12;;;;;;;5.57;3.05;;;36.90;63.60;;;;;;4973295;28;20432;-71
2023/08/24 11:58:42;;;;;;;4.28;2.83;;;37.70;62.60;;;;;;4972519;28;20027;-71
2023/08/24 12:01:10;;;;;;;6.70;2.58;;;38.40;61.40;;;;;;4972522;28;20051;-71
2023/08/24 12:03:37;;;;;;;7.10;2.97;;;38.90;60.30;;;;;;4972289;28;20464;-72
2023/08/24 12:06:19;;;;;;;3.38;2.45;;;38.90;60.80;;;;;;4972262;28;20019;-71
2023/08/24 12:08:48;;;;;;;3.92;3.38;;;39.00;60.00;;;;;;4972341;28;20030;-72
2023/08/24 12:11:16;;;;;;;9.20;2.90;;;39.10;59.70;;;;;;4974631;28;20030;-71
2023/08/24 12:13:54;;;;;;;6.72;2.75;;;39.50;59.20;;;;;;4972415;28;20189;-72
2023/08/24 12:16:21;;;;;;;9.05;3.33;;;39.70;60.00;;;;;;4955024;28;20030;-71
2023/08/24 12:19:03;;;;;;;5.35;3.00;;;38.40;58.70;;;;;;4971964;28;20155;-71
2023/08/24 12:21:29;;;;;;;6.63;3.17;;;38.20;59.40;;;;;;4974786;28;20117;-71
2023/08/24 12:23:57;;;;;;;3.70;2.78;;;38.80;59.60;;;;;;4984985;28;20025;-72
2023/08/24 12:26:23;;;;;;;;;;;39.30;59.50;;;;;;4972847;28;20026;-70
2023/08/24 12:28:53;;;;;;;6.90;2.65;;;38.60;57.60;;;;;;4954659;28;20388;-71
2023/08/24 12:31:19;;;;;;;3.15;2.65;;;38.90;59.40;;;;;;4973018;28;20553;-78
2023/08/24 12:33:46;;;;;;;8.32;2.53;;;39.50;58.00;;;;;;4971946;28;20019;-77
2023/08/24 12:36:12;;;;;;;5.55;2.30;;;40.40;56.90;;;;;;4972292;28;20078;-77
2023/08/24 12:38:38;;;;;;;4.40;2.28;;;40.60;57.20;;;;;;4972073;28;20023;-77
2023/08/24 12:41:04;;;;;;;5.10;2.75;;;40.60;56.70;;;;;;4954819;28;20065;-77
2023/08/24 12:43:30;;;;;;;5.13;2.70;;;41.00;55.50;;;;;;4954145;28;20061;-77
2023/08/24 12:45:55;;;;;;;5.75;2.83;;;41.00;55.70;;;;;;4971864;28;20030;-78